createdAt,value
2022-08-27T00:01:52.497Z,23.40
2022-08-27T00:04:20.361Z,22.97
2022-08-27T00:06:48.268Z,24.20
2022-08-27T00:09:15.986Z,24.10
2022-08-27T00:11:51.547Z,24.27
2022-08-27T00:14:20.602Z,27.80
2022-08-27T00:16:48.317Z,24.20
2022-08-27T00:19:16.218Z,24.70
2022-08-27T00:21:43.932Z,23.10
2022-08-27T00:24:12.428Z,23.50
2022-08-27T00:26:43.370Z,17.27
2022-08-27T00:29:11.416Z,19.27
2022-08-27T00:31:40.665Z,18.50
2022-08-27T00:34:09.115Z,16.33
2022-08-27T00:36:41.215Z,17.23
2022-08-27T00:39:08.966Z,18.30
2022-08-27T00:41:36.861Z,19.83
2022-08-27T00:44:06.315Z,19.80
2022-08-27T00:46:38.744Z,20.80
2022-08-27T00:49:11.044Z,19.70
2022-08-27T00:51:39.812Z,21.40
2022-08-27T00:54:09.476Z,22.00
2022-08-27T00:56:44.306Z,22.20
2022-08-27T00:59:19.557Z,23.40
2022-08-27T01:02:05.732Z,23.93
2022-08-27T01:04:36.764Z,23.43
2022-08-27T01:07:05.069Z,25.23
2022-08-27T01:09:33.673Z,23.27
2022-08-27T01:12:01.427Z,22.63
2022-08-27T01:14:29.459Z,23.77
2022-08-27T01:16:59.767Z,22.50
2022-08-27T01:19:34.098Z,24.20
2022-08-27T01:22:10.233Z,25.13
2022-08-27T01:24:51.751Z,23.90
2022-08-27T01:27:21.989Z,25.17
2022-08-27T01:29:50.251Z,25.47
2022-08-27T01:32:20.800Z,26.97
2022-08-27T01:34:49.440Z,25.47
2022-08-27T01:37:23.666Z,25.67
2022-08-27T01:39:55.560Z,26.50
2022-08-27T01:42:26.463Z,25.50
2022-08-27T01:44:57.204Z,25.40
2022-08-27T01:47:30.778Z,26.10
2022-08-27T01:49:59.740Z,25.90
2022-08-27T01:52:29.838Z,24.53
2022-08-27T01:54:59.176Z,24.80
2022-08-27T01:57:27.345Z,24.10
2022-08-27T01:59:58.039Z,23.63
2022-08-27T02:02:26.590Z,23.47
2022-08-27T02:04:54.537Z,24.37
2022-08-27T02:07:22.413Z,23.90
2022-08-27T02:09:50.303Z,23.73
2022-08-27T02:12:19.377Z,24.10
2022-08-27T02:14:47.197Z,23.47
2022-08-27T02:17:15.146Z,25.40
2022-08-27T02:19:43.001Z,24.30
2022-08-27T02:22:10.765Z,25.07
2022-08-27T02:24:38.570Z,24.10
2022-08-27T02:27:06.447Z,24.30
2022-08-27T02:29:36.026Z,24.00
2022-08-27T02:32:04.368Z,24.57
2022-08-27T02:34:32.112Z,23.33
2022-08-27T02:36:59.887Z,24.60
2022-08-27T02:39:27.644Z,23.60
2022-08-27T02:41:55.735Z,25.10
2022-08-27T02:44:23.498Z,23.50
2022-08-27T02:46:53.656Z,24.07
2022-08-27T02:49:21.599Z,24.50
2022-08-27T02:51:49.333Z,24.17
2022-08-27T02:54:17.632Z,22.80
2022-08-27T02:56:45.449Z,22.90
2022-08-27T02:59:13.196Z,24.00
2022-08-27T03:01:40.982Z,23.20
2022-08-27T03:04:10.152Z,22.20
2022-08-27T03:06:37.890Z,23.40
2022-08-27T03:09:05.935Z,23.60
2022-08-27T03:11:33.796Z,22.80
2022-08-27T03:14:01.559Z,22.73
2022-08-27T03:16:29.545Z,23.27
2022-08-27T03:18:56.313Z,25.23
2022-08-27T03:21:26.503Z,23.57
2022-08-27T03:23:54.764Z,22.40
2022-08-27T03:26:23.016Z,24.23
2022-08-27T03:28:50.960Z,23.03
2022-08-27T03:31:26.859Z,23.60
2022-08-27T03:33:56.397Z,23.33
2022-08-27T03:36:25.584Z,22.83
2022-08-27T03:38:53.770Z,20.10
2022-08-27T03:41:22.342Z,19.17
2022-08-27T03:43:52.898Z,19.60
2022-08-27T03:46:22.881Z,23.80
2022-08-27T03:48:53.821Z,21.03
2022-08-27T03:51:26.551Z,19.60
2022-08-27T03:53:54.272Z,18.23
2022-08-27T03:56:22.151Z,17.13
2022-08-27T03:58:50.026Z,19.60
2022-08-27T04:01:18.053Z,18.50
2022-08-27T04:03:45.768Z,18.73
2022-08-27T04:06:13.470Z,18.57
2022-08-27T04:08:42.605Z,18.53
2022-08-27T04:11:10.350Z,19.60
2022-08-27T04:13:38.070Z,18.20
2022-08-27T04:16:06.889Z,19.50
2022-08-27T04:18:35.237Z,19.77
2022-08-27T04:21:09.110Z,18.23
2022-08-27T04:23:36.813Z,17.83
2022-08-27T04:26:07.810Z,19.03
2022-08-27T04:28:38.694Z,22.33
2022-08-27T04:31:12.861Z,20.40
2022-08-27T04:33:50.741Z,22.07
2022-08-27T04:36:19.030Z,25.13
2022-08-27T04:38:46.790Z,26.00
2022-08-27T04:41:22.383Z,24.20
2022-08-27T04:43:52.530Z,26.57
2022-08-27T04:46:22.367Z,28.57
2022-08-27T04:48:50.167Z,31.53
2022-08-27T04:51:17.950Z,28.77
2022-08-27T04:53:46.412Z,29.53
2022-08-27T04:56:17.745Z,30.53
2022-08-27T04:58:45.972Z,31.83
2022-08-27T05:01:17.200Z,32.50
2022-08-27T05:03:45.226Z,31.60
2022-08-27T05:06:13.739Z,31.60
2022-08-27T05:08:42.343Z,32.60
2022-08-27T05:11:13.055Z,31.00
2022-08-27T05:13:42.392Z,32.40
2022-08-27T05:16:13.387Z,33.33
2022-08-27T05:18:48.227Z,32.63
2022-08-27T05:21:22.336Z,34.10
2022-08-27T05:23:50.805Z,31.30
2022-08-27T05:26:19.262Z,31.50
2022-08-27T05:28:48.416Z,31.53
2022-08-27T05:31:17.361Z,31.03
2022-08-27T05:33:45.509Z,31.23
2022-08-27T05:36:17.372Z,29.47
2022-08-27T05:38:45.818Z,31.27
2022-08-27T05:41:14.920Z,31.30
2022-08-27T05:43:47.720Z,30.43
2022-08-27T05:46:20.261Z,30.37
2022-08-27T05:48:48.226Z,31.90
2022-08-27T05:51:25.962Z,30.23
2022-08-27T05:53:56.773Z,31.33
2022-08-27T05:56:26.829Z,29.60
2022-08-27T05:59:12.544Z,31.10
2022-08-27T06:01:44.895Z,30.77
2022-08-27T06:04:17.574Z,29.47
2022-08-27T06:06:46.681Z,30.60
2022-08-27T06:09:17.097Z,32.53
2022-08-27T06:11:46.414Z,29.70
2022-08-27T06:14:14.371Z,29.80
2022-08-27T06:16:44.046Z,31.87
2022-08-27T06:19:13.169Z,31.50
2022-08-27T06:21:41.279Z,31.63
2022-08-27T06:24:12.156Z,31.07
2022-08-27T06:26:40.736Z,30.40
2022-08-27T06:29:10.025Z,31.43
2022-08-27T06:31:38.809Z,31.50
2022-08-27T06:34:11.207Z,33.60
2022-08-27T06:36:41.278Z,32.43
2022-08-27T06:39:13.263Z,31.67
2022-08-27T06:41:42.950Z,32.43
2022-08-27T06:44:11.177Z,30.80
2022-08-27T06:46:39.438Z,30.20
2022-08-27T06:49:09.179Z,30.87
2022-08-27T06:51:39.203Z,30.03
2022-08-27T06:54:09.886Z,31.40
2022-08-27T06:56:37.697Z,31.60
2022-08-27T06:59:11.615Z,29.93
2022-08-27T07:01:42.554Z,30.87
2022-08-27T07:04:14.961Z,28.73
2022-08-27T07:06:43.665Z,29.17
2022-08-27T07:09:12.203Z,29.40
2022-08-27T07:11:40.218Z,29.70
2022-08-27T07:14:09.107Z,29.90
2022-08-27T07:16:37.572Z,30.33
2022-08-27T07:19:08.633Z,28.20
2022-08-27T07:21:40.209Z,29.47
2022-08-27T07:24:09.194Z,29.23
2022-08-27T07:26:40.648Z,27.13
2022-08-27T07:29:11.360Z,31.20
2022-08-27T07:31:39.965Z,28.00
2022-08-27T07:34:08.787Z,29.30
2022-08-27T07:36:37.765Z,29.33
2022-08-27T07:39:07.082Z,30.43
2022-08-27T07:41:57.297Z,30.63
2022-08-27T07:44:34.274Z,30.00
2022-08-27T07:47:02.743Z,29.80
2022-08-27T07:49:31.855Z,30.73
2022-08-27T07:52:00.758Z,31.80
2022-08-27T07:54:30.042Z,31.90
2022-08-27T07:56:57.885Z,30.30
2022-08-27T07:59:27.191Z,31.07
2022-08-27T08:01:56.068Z,30.40
2022-08-27T08:04:24.294Z,29.90
2022-08-27T08:06:52.647Z,30.40
2022-08-27T08:09:22.134Z,29.03
2022-08-27T08:11:52.233Z,31.37
2022-08-27T08:14:20.635Z,33.13
2022-08-27T08:16:48.435Z,33.10
2022-08-27T08:19:16.361Z,31.00
2022-08-27T08:21:44.168Z,33.13
2022-08-27T08:24:12.038Z,35.60
2022-08-27T08:26:41.937Z,33.93
2022-08-27T08:29:13.824Z,33.37
2022-08-27T08:31:45.675Z,33.70
2022-08-27T08:34:19.077Z,34.77
2022-08-27T08:36:51.100Z,33.60
2022-08-27T08:39:22.530Z,34.33
2022-08-27T08:41:53.374Z,32.93
2022-08-27T08:44:31.878Z,35.23
2022-08-27T08:47:04.510Z,33.83
2022-08-27T08:49:39.483Z,38.23
2022-08-27T08:52:30.469Z,34.47
2022-08-27T08:55:08.574Z,36.40
2022-08-27T08:57:42.121Z,37.50
2022-08-27T09:00:14.223Z,37.50
2022-08-27T09:02:50.477Z,37.93
2022-08-27T09:05:18.534Z,38.17
2022-08-27T09:07:51.890Z,36.23
2022-08-27T09:10:26.597Z,37.00
2022-08-27T09:12:59.971Z,35.80
2022-08-27T09:15:32.749Z,32.90
2022-08-27T09:18:10.127Z,31.70
2022-08-27T09:20:46.209Z,32.90
2022-08-27T09:23:22.214Z,33.60
2022-08-27T09:25:49.942Z,32.20
2022-08-27T09:28:42.241Z,29.90
2022-08-27T09:31:14.517Z,25.60
2022-08-27T09:33:54.811Z,19.20
2022-08-27T09:36:25.758Z,18.90
2022-08-27T09:38:58.772Z,16.77
2022-08-27T09:41:31.116Z,15.70
2022-08-27T09:44:01.394Z,16.37
2022-08-27T09:46:31.224Z,18.27
2022-08-27T09:48:59.084Z,17.50
2022-08-27T09:51:30.334Z,19.93
2022-08-27T09:54:00.207Z,19.90
2022-08-27T09:56:33.051Z,18.70
2022-08-27T09:59:04.885Z,16.37
2022-08-27T10:01:36.700Z,17.47
2022-08-27T10:04:10.553Z,17.80
2022-08-27T10:06:45.275Z,17.40
2022-08-27T10:09:18.587Z,19.27
2022-08-27T10:11:51.693Z,16.07
2022-08-27T10:14:29.519Z,16.80
2022-08-27T10:17:11.752Z,14.57
2022-08-27T10:19:57.860Z,16.07
2022-08-27T10:22:41.185Z,15.60
2022-08-27T10:25:27.292Z,16.80
2022-08-27T10:28:04.876Z,16.13
2022-08-27T10:30:48.238Z,15.47
2022-08-27T10:33:23.861Z,15.87
2022-08-27T10:36:02.232Z,16.17
2022-08-27T10:38:42.468Z,17.43
2022-08-27T10:41:17.858Z,18.20
2022-08-27T10:44:24.114Z,17.23
2022-08-27T10:47:14.755Z,18.33
2022-08-27T10:49:53.763Z,18.77
2022-08-27T10:52:27.146Z,18.10
2022-08-27T10:55:01.475Z,21.00
2022-08-27T10:57:56.731Z,20.10
2022-08-27T11:00:40.080Z,19.47
2022-08-27T11:03:13.750Z,20.43
2022-08-27T11:05:46.314Z,18.70
2022-08-27T11:08:18.350Z,19.80
2022-08-27T11:10:50.145Z,19.30
2022-08-27T11:13:27.189Z,21.23
2022-08-27T11:15:56.971Z,22.10
2022-08-27T11:18:40.567Z,22.47
2022-08-27T11:21:18.075Z,20.73
2022-08-27T11:23:49.398Z,23.10
2022-08-27T11:26:17.870Z,22.73
2022-08-27T11:28:49.563Z,23.30
2022-08-27T11:31:24.018Z,22.63
2022-08-27T11:34:01.065Z,22.57
2022-08-27T11:36:54.293Z,23.80
2022-08-27T11:39:40.465Z,23.50
2022-08-27T11:42:18.173Z,26.60
2022-08-27T11:44:49.822Z,24.20
2022-08-27T11:47:22.468Z,23.70
2022-08-27T11:49:54.449Z,23.07
2022-08-27T11:52:29.253Z,22.57
2022-08-27T11:55:11.561Z,24.00
2022-08-27T11:57:40.373Z,21.63
2022-08-27T12:00:21.263Z,21.30
2022-08-27T12:02:59.147Z,21.50
2022-08-27T12:05:36.283Z,21.37
2022-08-27T12:08:18.846Z,20.93
2022-08-27T12:11:04.594Z,20.83
2022-08-27T12:13:38.985Z,20.20
2022-08-27T12:16:16.323Z,22.10
2022-08-27T12:18:56.417Z,21.70
2022-08-27T12:21:36.799Z,22.50
2022-08-27T12:24:44.209Z,22.70
2022-08-27T12:27:37.158Z,22.13
2022-08-27T12:30:21.094Z,21.83
2022-08-27T12:32:52.456Z,24.47
2022-08-27T12:35:23.945Z,21.87
2022-08-27T12:37:57.644Z,24.73
2022-08-27T12:40:29.381Z,24.20
2022-08-27T12:43:07.269Z,24.23
2022-08-27T12:45:44.348Z,25.17
2022-08-27T12:48:12.317Z,24.00
2022-08-27T12:50:40.631Z,23.43
2022-08-27T12:53:42.246Z,24.57
2022-08-27T12:56:27.738Z,24.60
2022-08-27T12:59:10.740Z,25.27
2022-08-27T13:01:52.690Z,25.27
2022-08-27T13:04:25.588Z,25.33
2022-08-27T13:06:53.383Z,25.23
2022-08-27T13:09:29.092Z,25.30
2022-08-27T13:12:00.004Z,25.93
2022-08-27T13:14:32.392Z,26.10
2022-08-27T13:17:05.727Z,26.83
2022-08-27T13:19:35.764Z,24.83
2022-08-27T13:22:07.150Z,24.87
2022-08-27T13:24:36.936Z,25.00
2022-08-27T13:27:07.657Z,25.50
2022-08-27T13:29:35.765Z,23.87
2022-08-27T13:32:04.524Z,25.70
2022-08-27T13:34:37.003Z,25.20
2022-08-27T13:37:07.935Z,23.27
2022-08-27T13:39:37.568Z,22.00
2022-08-27T13:42:09.195Z,24.47
2022-08-27T13:44:40.094Z,20.73
2022-08-27T13:47:11.565Z,20.83
2022-08-27T13:49:40.206Z,20.60
2022-08-27T13:52:24.711Z,19.70
2022-08-27T13:54:59.399Z,20.13
2022-08-27T13:57:31.311Z,20.50
2022-08-27T14:00:11.130Z,19.77
2022-08-27T14:02:39.106Z,19.40
2022-08-27T14:05:13.413Z,18.97
2022-08-27T14:07:47.397Z,19.20
2022-08-27T14:10:30.815Z,20.80
2022-08-27T14:13:02.859Z,20.30
2022-08-27T14:15:34.529Z,19.40
2022-08-27T14:18:04.578Z,20.17
2022-08-27T14:20:32.549Z,19.73
2022-08-27T14:23:00.503Z,20.23
2022-08-27T14:25:28.413Z,18.23
2022-08-27T14:27:57.689Z,18.97
2022-08-27T14:30:28.976Z,18.30
2022-08-27T14:32:59.435Z,19.50
2022-08-27T14:35:27.434Z,18.93
2022-08-27T14:37:55.696Z,20.10
2022-08-27T14:40:23.661Z,20.40
2022-08-27T14:42:51.626Z,20.00
2022-08-27T14:45:19.690Z,18.70
2022-08-27T14:47:48.809Z,20.53
2022-08-27T14:50:16.835Z,19.80
2022-08-27T14:52:44.677Z,21.87
2022-08-27T14:55:14.339Z,22.57
2022-08-27T14:57:42.175Z,20.80
2022-08-27T15:00:11.526Z,20.63
2022-08-27T15:02:44.447Z,21.20
2022-08-27T15:05:18.576Z,20.17
2022-08-27T15:07:47.544Z,19.70
2022-08-27T15:10:16.257Z,18.70
2022-08-27T15:12:44.272Z,22.50
2022-08-27T15:15:12.766Z,20.60
2022-08-27T15:17:40.533Z,22.57
2022-08-27T15:20:13.699Z,21.70
2022-08-27T15:22:52.086Z,22.97
2022-08-27T15:25:21.649Z,23.57
2022-08-27T15:27:49.734Z,22.13
2022-08-27T15:30:18.813Z,20.00
2022-08-27T15:32:48.566Z,20.77
2022-08-27T15:35:19.151Z,22.33
2022-08-27T15:37:47.234Z,22.80
2022-08-27T15:40:18.534Z,20.13
2022-08-27T15:42:48.617Z,16.63
2022-08-27T15:45:17.063Z,18.40
2022-08-27T15:47:44.810Z,19.27
2022-08-27T15:50:12.605Z,18.83
2022-08-27T15:52:42.639Z,16.97
2022-08-27T15:55:22.473Z,19.00
2022-08-27T15:57:50.415Z,18.57
2022-08-27T16:00:20.218Z,20.40
2022-08-27T16:02:48.221Z,20.07
2022-08-27T16:05:18.103Z,19.83
2022-08-27T16:07:46.931Z,18.23
2022-08-27T16:10:17.181Z,18.07
2022-08-27T16:12:45.609Z,16.40
2022-08-27T16:15:14.398Z,18.90
2022-08-27T16:17:43.143Z,18.93
2022-08-27T16:20:13.291Z,18.67
2022-08-27T16:22:41.965Z,20.53
2022-08-27T16:25:12.334Z,19.53
2022-08-27T16:27:44.457Z,18.93
2022-08-27T16:30:13.768Z,20.20
2022-08-27T16:32:41.742Z,20.03
2022-08-27T16:35:10.258Z,20.93
2022-08-27T16:37:37.961Z,20.87
2022-08-27T16:40:06.280Z,22.50
2022-08-27T16:42:34.363Z,22.00
2022-08-27T16:45:03.521Z,22.50
2022-08-27T16:47:31.279Z,21.23
2022-08-27T16:50:24.149Z,21.73
2022-08-27T16:52:53.371Z,23.73
2022-08-27T16:55:22.379Z,23.70
2022-08-27T16:57:50.076Z,28.60
2022-08-27T17:00:20.144Z,26.67
2022-08-27T17:02:47.895Z,27.20
2022-08-27T17:05:34.405Z,26.20
2022-08-27T17:08:03.389Z,29.93
2022-08-27T17:10:35.696Z,29.17
2022-08-27T17:13:03.465Z,29.10
2022-08-27T17:15:32.819Z,28.37
2022-08-27T17:18:00.558Z,28.17
2022-08-27T17:20:30.933Z,27.80
2022-08-27T17:22:59.335Z,29.60
2022-08-27T17:25:30.213Z,29.33
2022-08-27T17:28:00.470Z,28.40
2022-08-27T17:30:28.711Z,26.30
2022-08-27T17:32:57.952Z,28.03
2022-08-27T17:35:25.654Z,28.90
2022-08-27T17:37:53.353Z,29.73
2022-08-27T17:40:21.543Z,28.00
2022-08-27T17:42:49.748Z,26.97
2022-08-27T17:45:17.632Z,26.73
2022-08-27T17:47:45.366Z,25.77
2022-08-27T17:50:14.496Z,28.30
2022-08-27T17:52:42.238Z,28.37
2022-08-27T17:55:10.308Z,28.07
2022-08-27T17:57:41.047Z,28.00
2022-08-27T18:00:11.742Z,28.30
2022-08-27T18:02:43.155Z,29.97
2022-08-27T18:05:13.760Z,28.57
2022-08-27T18:07:44.364Z,30.10
2022-08-27T18:10:15.195Z,30.67
2022-08-27T18:12:43.677Z,30.80
2022-08-27T18:15:15.266Z,30.67
2022-08-27T18:17:43.607Z,30.80
2022-08-27T18:20:13.974Z,29.47
2022-08-27T18:22:48.578Z,31.73
2022-08-27T18:25:17.179Z,29.30
2022-08-27T18:27:47.194Z,30.97
2022-08-27T18:30:16.218Z,29.37
2022-08-27T18:32:44.656Z,30.90
2022-08-27T18:35:17.151Z,29.70
2022-08-27T18:37:46.512Z,31.40
2022-08-27T18:40:16.713Z,30.70
2022-08-27T18:42:44.876Z,30.20
2022-08-27T18:45:15.523Z,32.30
2022-08-27T18:47:44.204Z,31.27
2022-08-27T18:50:17.882Z,29.80
2022-08-27T18:52:48.768Z,30.73
2022-08-27T18:55:18.955Z,29.57
2022-08-27T18:57:47.216Z,26.33
2022-08-27T19:00:19.283Z,29.80
2022-08-27T19:02:52.443Z,27.80
2022-08-27T19:05:24.916Z,27.13
2022-08-27T19:07:54.157Z,29.97
2022-08-27T19:10:22.187Z,28.47
2022-08-27T19:12:50.330Z,27.83
2022-08-27T19:15:18.655Z,29.63
2022-08-27T19:17:52.105Z,29.50
2022-08-27T19:20:20.100Z,29.07
2022-08-27T19:22:48.706Z,28.13
2022-08-27T19:25:18.402Z,27.10
2022-08-27T19:27:47.683Z,29.90
2022-08-27T19:30:16.696Z,29.30
2022-08-27T19:32:45.731Z,28.07
2022-08-27T19:35:15.090Z,31.13
2022-08-27T19:37:46.365Z,32.60
2022-08-27T19:40:23.190Z,31.13
2022-08-27T19:42:51.669Z,29.50
2022-08-27T19:45:23.198Z,29.70
2022-08-27T19:47:53.287Z,30.10
2022-08-27T19:50:21.959Z,31.07
2022-08-27T19:52:50.493Z,29.13
2022-08-27T19:55:18.860Z,31.67
2022-08-27T19:57:48.884Z,29.83
2022-08-27T20:00:20.320Z,32.37
2022-08-27T20:02:48.129Z,31.90
2022-08-27T20:05:19.972Z,31.50
2022-08-27T20:07:49.135Z,28.07
2022-08-27T20:10:17.328Z,30.80
2022-08-27T20:12:47.438Z,31.07
2022-08-27T20:15:15.771Z,32.30
2022-08-27T20:17:43.830Z,32.13
2022-08-27T20:20:13.262Z,35.80
2022-08-27T20:22:41.485Z,32.37
2022-08-27T20:25:10.215Z,32.50
2022-08-27T20:27:38.326Z,33.20
2022-08-27T20:30:10.919Z,31.27
2022-08-27T20:32:39.572Z,32.97
2022-08-27T20:35:09.009Z,33.40
2022-08-27T20:37:42.009Z,30.57
2022-08-27T20:40:14.136Z,30.70
2022-08-27T20:42:42.024Z,31.33
2022-08-27T20:45:12.573Z,30.93
2022-08-27T20:47:41.039Z,31.10
2022-08-27T20:50:09.446Z,29.60
2022-08-27T20:52:40.391Z,29.40
2022-08-27T20:55:09.601Z,31.00
2022-08-27T20:57:37.397Z,30.77
2022-08-27T21:00:21.242Z,31.03
2022-08-27T21:02:50.379Z,29.93
2022-08-27T21:05:20.051Z,31.67
2022-08-27T21:07:48.945Z,29.30
2022-08-27T21:10:17.655Z,28.10
2022-08-27T21:12:46.239Z,30.10
2022-08-27T21:15:14.730Z,29.93
2022-08-27T21:17:42.672Z,28.90
2022-08-27T21:20:13.439Z,28.23
2022-08-27T21:22:43.594Z,28.90
2022-08-27T21:25:16.207Z,28.07
2022-08-27T21:27:43.980Z,27.57
2022-08-27T21:30:13.157Z,27.20
2022-08-27T21:32:40.989Z,29.03
2022-08-27T21:35:09.327Z,28.00
2022-08-27T21:37:38.979Z,28.03
2022-08-27T21:40:08.170Z,27.67
2022-08-27T21:42:35.923Z,27.40
2022-08-27T21:45:03.868Z,26.77
2022-08-27T21:47:31.592Z,27.07
2022-08-27T21:49:59.397Z,27.03
2022-08-27T21:52:27.122Z,26.17
2022-08-27T21:54:56.158Z,27.13
2022-08-27T21:57:24.308Z,26.37
2022-08-27T21:59:52.384Z,25.87
2022-08-27T22:02:39.195Z,25.77
2022-08-27T22:05:09.009Z,26.23
2022-08-27T22:07:36.794Z,26.43
2022-08-27T22:10:07.453Z,24.70
2022-08-27T22:12:35.844Z,25.47
2022-08-27T22:15:04.791Z,26.20
2022-08-27T22:17:32.505Z,24.70
2022-08-27T22:20:00.364Z,24.70
2022-08-27T22:22:30.760Z,24.47
2022-08-27T22:24:59.089Z,25.37
2022-08-27T22:27:28.530Z,23.60
2022-08-27T22:29:56.232Z,24.63
2022-08-27T22:32:23.960Z,24.70
2022-08-27T22:34:52.200Z,24.57
2022-08-27T22:37:19.956Z,22.67
2022-08-27T22:39:47.723Z,23.70
2022-08-27T22:42:17.782Z,24.20
2022-08-27T22:44:47.526Z,23.13
2022-08-27T22:47:15.834Z,23.47
2022-08-27T22:49:44.290Z,22.60
2022-08-27T22:52:12.365Z,23.77
2022-08-27T22:54:40.613Z,22.73
2022-08-27T22:57:10.475Z,23.80
2022-08-27T22:59:38.861Z,23.40
2022-08-27T23:02:10.479Z,21.97
2022-08-27T23:04:54.503Z,24.17
2022-08-27T23:07:23.240Z,23.37
2022-08-27T23:09:50.970Z,21.90
2022-08-27T23:12:19.811Z,22.50
2022-08-27T23:14:47.604Z,21.80
2022-08-27T23:17:17.046Z,21.60
2022-08-27T23:19:45.816Z,20.27
2022-08-27T23:22:14.060Z,21.60
2022-08-27T23:24:55.683Z,21.47
2022-08-27T23:27:32.133Z,20.43
2022-08-27T23:30:01.779Z,22.30
2022-08-27T23:32:31.790Z,19.40
2022-08-27T23:34:59.734Z,19.13
2022-08-27T23:37:27.760Z,20.00
2022-08-27T23:39:56.001Z,18.70
2022-08-27T23:42:24.571Z,19.70
2022-08-27T23:44:52.505Z,19.20
2022-08-27T23:47:20.287Z,18.63
2022-08-27T23:49:49.335Z,18.80
2022-08-27T23:52:17.077Z,19.00
2022-08-27T23:54:44.786Z,21.00
2022-08-27T23:57:12.621Z,18.47
2022-08-27T23:59:40.351Z,19.20
